sensor_id;sensor_type;location;lat;lon;timestamp;P1;P2;P0
28026;PMS5003;15344;52.342;-1.290;2022-09-09T00:01:03;8;7;
28026;PMS5003;15344;52.342;-1.290;2022-09-09T00:03:27;7;5;
28026;PMS5003;15344;52.342;-1.290;2022-09-09T00:05:53;8;7;
28026;PMS5003;15344;52.342;-1.290;2022-09-09T00:08:18;8;5;
28026;PMS5003;15344;52.342;-1.290;2022-09-09T00:10:42;11;7;
28026;PMS5003;15344;52.342;-1.290;2022-09-09T00:13:11;5;4;
28026;PMS5003;15344;52.342;-1.290;2022-09-09T00:15:33;6;6;
28026;PMS5003;15344;52.342;-1.290;2022-09-09T00:17:59;5;4;
28026;PMS5003;15344;52.342;-1.290;2022-09-09T00:20:24;5;5;
28026;PMS5003;15344;52.342;-1.290;2022-09-09T00:22:50;8;4;
28026;PMS5003;15344;52.342;-1.290;2022-09-09T00:25:15;8;6;
28026;PMS5003;15344;52.342;-1.290;2022-09-09T00:27:40;7;7;
28026;PMS5003;15344;52.342;-1.290;2022-09-09T00:32:30;9;6;
28026;PMS5003;15344;52.342;-1.290;2022-09-09T00:34:56;9;5;
28026;PMS5003;15344;52.342;-1.290;2022-09-09T00:37:21;7;4;
28026;PMS5003;15344;52.342;-1.290;2022-09-09T00:39:46;8;6;
28026;PMS5003;15344;52.342;-1.290;2022-09-09T00:42:13;4;4;
28026;PMS5003;15344;52.342;-1.290;2022-09-09T00:44:36;7;5;
28026;PMS5003;15344;52.342;-1.290;2022-09-09T00:47:04;10;6;
28026;PMS5003;15344;52.342;-1.290;2022-09-09T00:49:30;6;6;
28026;PMS5003;15344;52.342;-1.290;2022-09-09T00:51:58;7;6;
28026;PMS5003;15344;52.342;-1.290;2022-09-09T00:56:42;9;6;
28026;PMS5003;15344;52.342;-1.290;2022-09-09T00:59:12;7;5;
28026;PMS5003;15344;52.342;-1.290;2022-09-09T01:01:32;6;5;
28026;PMS5003;15344;52.342;-1.290;2022-09-09T01:03:57;11;7;
28026;PMS5003;15344;52.342;-1.290;2022-09-09T01:06:26;7;5;
28026;PMS5003;15344;52.342;-1.290;2022-09-09T01:08:56;9;8;
28026;PMS5003;15344;52.342;-1.290;2022-09-09T01:11:17;10;7;
28026;PMS5003;15344;52.342;-1.290;2022-09-09T01:13:40;11;8;
28026;PMS5003;15344;52.342;-1.290;2022-09-09T01:16:07;11;5;
28026;PMS5003;15344;52.342;-1.290;2022-09-09T01:18:31;7;7;
28026;PMS5003;15344;52.342;-1.290;2022-09-09T01:20:58;10;8;
28026;PMS5003;15344;52.342;-1.290;2022-09-09T01:28:11;8;7;
28026;PMS5003;15344;52.342;-1.290;2022-09-09T01:30:37;9;9;
28026;PMS5003;15344;52.342;-1.290;2022-09-09T01:33:01;6;6;
28026;PMS5003;15344;52.342;-1.290;2022-09-09T01:35:32;10;8;
28026;PMS5003;15344;52.342;-1.290;2022-09-09T01:37:51;8;6;
28026;PMS5003;15344;52.342;-1.290;2022-09-09T01:40:17;7;7;
28026;PMS5003;15344;52.342;-1.290;2022-09-09T01:42:42;8;6;
28026;PMS5003;15344;52.342;-1.290;2022-09-09T01:45:07;8;8;
28026;PMS5003;15344;52.342;-1.290;2022-09-09T01:47:33;10;7;
28026;PMS5003;15344;52.342;-1.290;2022-09-09T01:49:58;12;8;
28026;PMS5003;15344;52.342;-1.290;2022-09-09T01:52:24;6;6;
28026;PMS5003;15344;52.342;-1.290;2022-09-09T01:54:49;8;7;
28026;PMS5003;15344;52.342;-1.290;2022-09-09T01:57:15;12;7;
28026;PMS5003;15344;52.342;-1.290;2022-09-09T02:02:09;8;6;
28026;PMS5003;15344;52.342;-1.290;2022-09-09T02:04:36;13;6;
28026;PMS5003;15344;52.342;-1.290;2022-09-09T02:06:55;7;7;
28026;PMS5003;15344;52.342;-1.290;2022-09-09T02:09:21;9;7;
28026;PMS5003;15344;52.342;-1.290;2022-09-09T02:11:46;10;9;
28026;PMS5003;15344;52.342;-1.290;2022-09-09T02:14:12;7;7;
28026;PMS5003;15344;52.342;-1.290;2022-09-09T02:16:37;13;9;
28026;PMS5003;15344;52.342;-1.290;2022-09-09T02:19:02;8;8;
28026;PMS5003;15344;52.342;-1.290;2022-09-09T02:21:27;11;7;
28026;PMS5003;15344;52.342;-1.290;2022-09-09T02:23:52;13;12;
28026;PMS5003;15344;52.342;-1.290;2022-09-09T02:26:17;14;11;
28026;PMS5003;15344;52.342;-1.290;2022-09-09T02:28:42;13;8;
28026;PMS5003;15344;52.342;-1.290;2022-09-09T02:31:07;12;11;
28026;PMS5003;15344;52.342;-1.290;2022-09-09T02:33:35;17;14;
28026;PMS5003;15344;52.342;-1.290;2022-09-09T02:35:59;13;7;
28026;PMS5003;15344;52.342;-1.290;2022-09-09T02:38:24;14;11;
28026;PMS5003;15344;52.342;-1.290;2022-09-09T02:40:49;12;11;
28026;PMS5003;15344;52.342;-1.290;2022-09-09T02:43:14;13;9;
28026;PMS5003;15344;52.342;-1.290;2022-09-09T02:45:41;16;15;
28026;PMS5003;15344;52.342;-1.290;2022-09-09T02:48:07;15;12;
28026;PMS5003;15344;52.342;-1.290;2022-09-09T02:50:32;12;12;
28026;PMS5003;15344;52.342;-1.290;2022-09-09T02:52:59;10;10;
28026;PMS5003;15344;52.342;-1.290;2022-09-09T02:55:23;18;12;
28026;PMS5003;15344;52.342;-1.290;2022-09-09T02:57:47;21;16;
28026;PMS5003;15344;52.342;-1.290;2022-09-09T03:00:13;19;16;
28026;PMS5003;15344;52.342;-1.290;2022-09-09T03:02:38;15;13;
28026;PMS5003;15344;52.342;-1.290;2022-09-09T03:05:04;19;15;
28026;PMS5003;15344;52.342;-1.290;2022-09-09T03:07:29;14;14;
28026;PMS5003;15344;52.342;-1.290;2022-09-09T03:09:54;17;16;
28026;PMS5003;15344;52.342;-1.290;2022-09-09T03:12:20;19;17;
28026;PMS5003;15344;52.342;-1.290;2022-09-09T03:14:46;23;18;
28026;PMS5003;15344;52.342;-1.290;2022-09-09T03:17:11;21;19;
28026;PMS5003;15344;52.342;-1.290;2022-09-09T03:19:37;23;20;
28026;PMS5003;15344;52.342;-1.290;2022-09-09T03:22:03;22;18;
28026;PMS5003;15344;52.342;-1.290;2022-09-09T03:24:28;20;17;
28026;PMS5003;15344;52.342;-1.290;2022-09-09T03:26:53;16;16;
28026;PMS5003;15344;52.342;-1.290;2022-09-09T03:29:19;17;16;
28026;PMS5003;15344;52.342;-1.290;2022-09-09T03:31:45;22;21;
28026;PMS5003;15344;52.342;-1.290;2022-09-09T03:34:10;20;17;
28026;PMS5003;15344;52.342;-1.290;2022-09-09T03:36:36;21;20;
28026;PMS5003;15344;52.342;-1.290;2022-09-09T03:39:01;19;18;
28026;PMS5003;15344;52.342;-1.290;2022-09-09T03:41:26;21;13;
28026;PMS5003;15344;52.342;-1.290;2022-09-09T03:43:51;22;19;
28026;PMS5003;15344;52.342;-1.290;2022-09-09T03:46:16;20;17;
28026;PMS5003;15344;52.342;-1.290;2022-09-09T03:48:42;22;20;
28026;PMS5003;15344;52.342;-1.290;2022-09-09T03:51:07;20;18;
28026;PMS5003;15344;52.342;-1.290;2022-09-09T03:53:32;25;18;
28026;PMS5003;15344;52.342;-1.290;2022-09-09T03:55:58;22;20;
28026;PMS5003;15344;52.342;-1.290;2022-09-09T03:58:23;24;21;
28026;PMS5003;15344;52.342;-1.290;2022-09-09T04:00:53;22;18;
28026;PMS5003;15344;52.342;-1.290;2022-09-09T04:03:13;26;19;
28026;PMS5003;15344;52.342;-1.290;2022-09-09T04:05:39;25;19;
28026;PMS5003;15344;52.342;-1.290;2022-09-09T04:08:05;19;18;
28026;PMS5003;15344;52.342;-1.290;2022-09-09T04:10:30;24;21;
28026;PMS5003;15344;52.342;-1.290;2022-09-09T04:12:56;23;16;
28026;PMS5003;15344;52.342;-1.290;2022-09-09T04:15:21;20;20;
28026;PMS5003;15344;52.342;-1.290;2022-09-09T04:17:47;21;18;
28026;PMS5003;15344;52.342;-1.290;2022-09-09T04:20:13;21;20;
28026;PMS5003;15344;52.342;-1.290;2022-09-09T04:22:38;22;19;
28026;PMS5003;15344;52.342;-1.290;2022-09-09T04:25:04;21;14;
28026;PMS5003;15344;52.342;-1.290;2022-09-09T04:27:30;20;18;
28026;PMS5003;15344;52.342;-1.290;2022-09-09T04:29:55;21;20;
28026;PMS5003;15344;52.342;-1.290;2022-09-09T04:32:21;20;17;
28026;PMS5003;15344;52.342;-1.290;2022-09-09T04:34:46;21;15;
28026;PMS5003;15344;52.342;-1.290;2022-09-09T04:37:12;17;17;
28026;PMS5003;15344;52.342;-1.290;2022-09-09T04:39:38;20;19;
28026;PMS5003;15344;52.342;-1.290;2022-09-09T04:42:04;23;21;
28026;PMS5003;15344;52.342;-1.290;2022-09-09T04:44:29;25;22;
28026;PMS5003;15344;52.342;-1.290;2022-09-09T04:46:55;26;24;
28026;PMS5003;15344;52.342;-1.290;2022-09-09T04:49:20;18;18;
28026;PMS5003;15344;52.342;-1.290;2022-09-09T04:51:45;21;18;
28026;PMS5003;15344;52.342;-1.290;2022-09-09T04:54:10;23;19;
28026;PMS5003;15344;52.342;-1.290;2022-09-09T04:56:36;28;21;
28026;PMS5003;15344;52.342;-1.290;2022-09-09T04:59:02;22;18;
28026;PMS5003;15344;52.342;-1.290;2022-09-09T05:01:27;21;19;
28026;PMS5003;15344;52.342;-1.290;2022-09-09T05:03:52;21;16;
28026;PMS5003;15344;52.342;-1.290;2022-09-09T05:06:18;22;18;
28026;PMS5003;15344;52.342;-1.290;2022-09-09T05:08:43;20;18;
28026;PMS5003;15344;52.342;-1.290;2022-09-09T05:13:34;24;20;
28026;PMS5003;15344;52.342;-1.290;2022-09-09T05:15:59;18;18;
28026;PMS5003;15344;52.342;-1.290;2022-09-09T05:18:24;24;20;
28026;PMS5003;15344;52.342;-1.290;2022-09-09T05:20:50;27;23;
28026;PMS5003;15344;52.342;-1.290;2022-09-09T05:23:16;18;17;
28026;PMS5003;15344;52.342;-1.290;2022-09-09T05:25:41;23;20;
28026;PMS5003;15344;52.342;-1.290;2022-09-09T05:28:07;30;25;
28026;PMS5003;15344;52.342;-1.290;2022-09-09T05:30:32;21;19;
28026;PMS5003;15344;52.342;-1.290;2022-09-09T05:32:57;22;19;
28026;PMS5003;15344;52.342;-1.290;2022-09-09T05:35:22;26;20;
28026;PMS5003;15344;52.342;-1.290;2022-09-09T05:37:48;22;22;
28026;PMS5003;15344;52.342;-1.290;2022-09-09T05:40:13;22;22;
28026;PMS5003;15344;52.342;-1.290;2022-09-09T05:42:39;25;21;
28026;PMS5003;15344;52.342;-1.290;2022-09-09T05:45:05;24;22;
28026;PMS5003;15344;52.342;-1.290;2022-09-09T05:47:30;25;18;
28026;PMS5003;15344;52.342;-1.290;2022-09-09T05:49:55;29;24;
28026;PMS5003;15344;52.342;-1.290;2022-09-09T05:52:20;19;18;
28026;PMS5003;15344;52.342;-1.290;2022-09-09T05:54:46;27;23;
28026;PMS5003;15344;52.342;-1.290;2022-09-09T05:57:12;24;20;
28026;PMS5003;15344;52.342;-1.290;2022-09-09T05:59:37;27;22;
28026;PMS5003;15344;52.342;-1.290;2022-09-09T06:02:02;27;21;
28026;PMS5003;15344;52.342;-1.290;2022-09-09T06:04:28;27;22;
28026;PMS5003;15344;52.342;-1.290;2022-09-09T06:06:53;27;23;
28026;PMS5003;15344;52.342;-1.290;2022-09-09T06:09:18;26;23;
28026;PMS5003;15344;52.342;-1.290;2022-09-09T06:11:43;29;23;
28026;PMS5003;15344;52.342;-1.290;2022-09-09T06:14:09;23;21;
28026;PMS5003;15344;52.342;-1.290;2022-09-09T06:16:34;28;22;
28026;PMS5003;15344;52.342;-1.290;2022-09-09T06:19:00;22;22;
28026;PMS5003;15344;52.342;-1.290;2022-09-09T06:21:25;21;19;
28026;PMS5003;15344;52.342;-1.290;2022-09-09T06:23:50;23;22;
28026;PMS5003;15344;52.342;-1.290;2022-09-09T06:26:16;23;20;
28026;PMS5003;15344;52.342;-1.290;2022-09-09T06:28:41;24;18;
28026;PMS5003;15344;52.342;-1.290;2022-09-09T06:31:07;26;23;
28026;PMS5003;15344;52.342;-1.290;2022-09-09T06:33:31;26;22;
28026;PMS5003;15344;52.342;-1.290;2022-09-09T06:35:56;30;25;
28026;PMS5003;15344;52.342;-1.290;2022-09-09T06:38:22;24;21;
28026;PMS5003;15344;52.342;-1.290;2022-09-09T06:40:50;26;21;
28026;PMS5003;15344;52.342;-1.290;2022-09-09T06:43:12;34;26;
28026;PMS5003;15344;52.342;-1.290;2022-09-09T06:45:37;29;25;
28026;PMS5003;15344;52.342;-1.290;2022-09-09T06:48:03;27;22;
28026;PMS5003;15344;52.342;-1.290;2022-09-09T06:50:28;38;33;
28026;PMS5003;15344;52.342;-1.290;2022-09-09T06:52:54;36;26;
28026;PMS5003;15344;52.342;-1.290;2022-09-09T06:55:19;29;26;
28026;PMS5003;15344;52.342;-1.290;2022-09-09T06:57:45;30;27;
28026;PMS5003;15344;52.342;-1.290;2022-09-09T07:00:10;28;23;
28026;PMS5003;15344;52.342;-1.290;2022-09-09T07:02:36;49;35;
28026;PMS5003;15344;52.342;-1.290;2022-09-09T07:05:01;32;27;
28026;PMS5003;15344;52.342;-1.290;2022-09-09T07:07:27;35;33;
28026;PMS5003;15344;52.342;-1.290;2022-09-09T07:09:53;38;29;
28026;PMS5003;15344;52.342;-1.290;2022-09-09T07:12:18;32;29;
28026;PMS5003;15344;52.342;-1.290;2022-09-09T07:14:43;33;27;
28026;PMS5003;15344;52.342;-1.290;2022-09-09T07:17:09;32;25;
28026;PMS5003;15344;52.342;-1.290;2022-09-09T07:19:34;31;28;
28026;PMS5003;15344;52.342;-1.290;2022-09-09T07:21:59;39;31;
28026;PMS5003;15344;52.342;-1.290;2022-09-09T07:24:25;31;26;
28026;PMS5003;15344;52.342;-1.290;2022-09-09T07:26:50;34;26;
28026;PMS5003;15344;52.342;-1.290;2022-09-09T07:29:16;28;23;
28026;PMS5003;15344;52.342;-1.290;2022-09-09T07:31:41;26;23;
28026;PMS5003;15344;52.342;-1.290;2022-09-09T07:34:06;38;28;
28026;PMS5003;15344;52.342;-1.290;2022-09-09T07:36:32;33;29;
28026;PMS5003;15344;52.342;-1.290;2022-09-09T07:38:58;31;28;
28026;PMS5003;15344;52.342;-1.290;2022-09-09T07:41:22;29;24;
28026;PMS5003;15344;52.342;-1.290;2022-09-09T07:43:48;29;23;
28026;PMS5003;15344;52.342;-1.290;2022-09-09T07:46:13;28;28;
28026;PMS5003;15344;52.342;-1.290;2022-09-09T07:48:43;27;26;
28026;PMS5003;15344;52.342;-1.290;2022-09-09T07:51:06;29;25;
28026;PMS5003;15344;52.342;-1.290;2022-09-09T07:53:30;31;23;
28026;PMS5003;15344;52.342;-1.290;2022-09-09T07:55:55;27;24;
28026;PMS5003;15344;52.342;-1.290;2022-09-09T07:58:20;33;25;
28026;PMS5003;15344;52.342;-1.290;2022-09-09T08:00:45;32;25;
28026;PMS5003;15344;52.342;-1.290;2022-09-09T08:03:11;32;24;
28026;PMS5003;15344;52.342;-1.290;2022-09-09T08:05:36;25;19;
28026;PMS5003;15344;52.342;-1.290;2022-09-09T08:08:02;31;25;
28026;PMS5003;15344;52.342;-1.290;2022-09-09T08:10:27;37;28;
28026;PMS5003;15344;52.342;-1.290;2022-09-09T08:12:53;33;29;
28026;PMS5003;15344;52.342;-1.290;2022-09-09T08:15:19;36;31;
28026;PMS5003;15344;52.342;-1.290;2022-09-09T08:17:44;28;24;
28026;PMS5003;15344;52.342;-1.290;2022-09-09T08:20:09;43;27;
28026;PMS5003;15344;52.342;-1.290;2022-09-09T08:22:35;27;23;
28026;PMS5003;15344;52.342;-1.290;2022-09-09T08:25:01;32;25;
28026;PMS5003;15344;52.342;-1.290;2022-09-09T08:27:26;30;23;
28026;PMS5003;15344;52.342;-1.290;2022-09-09T08:29:51;30;24;
28026;PMS5003;15344;52.342;-1.290;2022-09-09T08:32:17;24;22;
28026;PMS5003;15344;52.342;-1.290;2022-09-09T08:34:42;31;24;
28026;PMS5003;15344;52.342;-1.290;2022-09-09T08:37:08;30;24;
28026;PMS5003;15344;52.342;-1.290;2022-09-09T08:39:33;32;29;
28026;PMS5003;15344;52.342;-1.290;2022-09-09T08:42:03;25;21;
28026;PMS5003;15344;52.342;-1.290;2022-09-09T08:44:27;21;21;
28026;PMS5003;15344;52.342;-1.290;2022-09-09T08:46:51;37;29;
28026;PMS5003;15344;52.342;-1.290;2022-09-09T08:49:18;28;22;
28026;PMS5003;15344;52.342;-1.290;2022-09-09T08:51:40;24;20;
28026;PMS5003;15344;52.342;-1.290;2022-09-09T08:54:06;30;24;
28026;PMS5003;15344;52.342;-1.290;2022-09-09T08:56:31;25;21;
28026;PMS5003;15344;52.342;-1.290;2022-09-09T08:58:56;19;17;
28026;PMS5003;15344;52.342;-1.290;2022-09-09T09:03:49;27;23;
28026;PMS5003;15344;52.342;-1.290;2022-09-09T09:06:16;24;22;
28026;PMS5003;15344;52.342;-1.290;2022-09-09T09:08:39;22;18;
28026;PMS5003;15344;52.342;-1.290;2022-09-09T09:11:03;25;21;
28026;PMS5003;15344;52.342;-1.290;2022-09-09T09:13:32;22;20;
28026;PMS5003;15344;52.342;-1.290;2022-09-09T09:15:55;22;18;
28026;PMS5003;15344;52.342;-1.290;2022-09-09T09:18:20;19;15;
28026;PMS5003;15344;52.342;-1.290;2022-09-09T09:20:50;17;17;
28026;PMS5003;15344;52.342;-1.290;2022-09-09T09:23:13;22;20;
28026;PMS5003;15344;52.342;-1.290;2022-09-09T09:25:38;28;23;
28026;PMS5003;15344;52.342;-1.290;2022-09-09T09:28:03;19;17;
28026;PMS5003;15344;52.342;-1.290;2022-09-09T09:30:29;17;14;
28026;PMS5003;15344;52.342;-1.290;2022-09-09T09:32:54;24;19;
28026;PMS5003;15344;52.342;-1.290;2022-09-09T09:35:19;16;14;
28026;PMS5003;15344;52.342;-1.290;2022-09-09T09:37:44;18;16;
28026;PMS5003;15344;52.342;-1.290;2022-09-09T09:40:10;27;23;
28026;PMS5003;15344;52.342;-1.290;2022-09-09T09:42:35;20;17;
28026;PMS5003;15344;52.342;-1.290;2022-09-09T09:47:26;29;20;
28026;PMS5003;15344;52.342;-1.290;2022-09-09T09:49:51;18;16;
28026;PMS5003;15344;52.342;-1.290;2022-09-09T09:52:17;21;18;
28026;PMS5003;15344;52.342;-1.290;2022-09-09T09:54:41;22;18;
28026;PMS5003;15344;52.342;-1.290;2022-09-09T09:57:08;19;17;
28026;PMS5003;15344;52.342;-1.290;2022-09-09T09:59:33;17;15;
28026;PMS5003;15344;52.342;-1.290;2022-09-09T10:04:23;14;14;
28026;PMS5003;15344;52.342;-1.290;2022-09-09T10:06:49;16;13;
28026;PMS5003;15344;52.342;-1.290;2022-09-09T10:11:41;17;17;
28026;PMS5003;15344;52.342;-1.290;2022-09-09T10:14:05;16;14;
28026;PMS5003;15344;52.342;-1.290;2022-09-09T10:16:35;17;14;
28026;PMS5003;15344;52.342;-1.290;2022-09-09T10:18:58;24;15;
28026;PMS5003;15344;52.342;-1.290;2022-09-09T10:21:24;21;19;
28026;PMS5003;15344;52.342;-1.290;2022-09-09T10:23:51;24;20;
28026;PMS5003;15344;52.342;-1.290;2022-09-09T10:26:14;16;14;
28026;PMS5003;15344;52.342;-1.290;2022-09-09T10:28:40;15;10;
28026;PMS5003;15344;52.342;-1.290;2022-09-09T10:31:04;17;14;
28026;PMS5003;15344;52.342;-1.290;2022-09-09T10:33:28;14;12;
28026;PMS5003;15344;52.342;-1.290;2022-09-09T10:35:53;19;15;
28026;PMS5003;15344;52.342;-1.290;2022-09-09T10:38:19;15;10;
28026;PMS5003;15344;52.342;-1.290;2022-09-09T10:40:48;14;10;
28026;PMS5003;15344;52.342;-1.290;2022-09-09T10:43:12;10;10;
28026;PMS5003;15344;52.342;-1.290;2022-09-09T10:45:37;14;10;
28026;PMS5003;15344;52.342;-1.290;2022-09-09T10:48:06;11;7;
28026;PMS5003;15344;52.342;-1.290;2022-09-09T10:50:29;8;8;
28026;PMS5003;15344;52.342;-1.290;2022-09-09T10:52:55;9;6;
28026;PMS5003;15344;52.342;-1.290;2022-09-09T10:55:19;14;9;
28026;PMS5003;15344;52.342;-1.290;2022-09-09T10:57:45;6;6;
28026;PMS5003;15344;52.342;-1.290;2022-09-09T11:00:15;9;8;
28026;PMS5003;15344;52.342;-1.290;2022-09-09T11:02:36;12;7;
28026;PMS5003;15344;52.342;-1.290;2022-09-09T11:05:01;8;6;
28026;PMS5003;15344;52.342;-1.290;2022-09-09T11:07:28;12;12;
28026;PMS5003;15344;52.342;-1.290;2022-09-09T11:09:53;17;11;
28026;PMS5003;15344;52.342;-1.290;2022-09-09T11:12:19;9;9;
28026;PMS5003;15344;52.342;-1.290;2022-09-09T11:14:44;14;11;
28026;PMS5003;15344;52.342;-1.290;2022-09-09T11:17:10;11;9;
28026;PMS5003;15344;52.342;-1.290;2022-09-09T11:19:34;15;12;
28026;PMS5003;15344;52.342;-1.290;2022-09-09T11:22:00;14;12;
28026;PMS5003;15344;52.342;-1.290;2022-09-09T11:24:26;14;14;
28026;PMS5003;15344;52.342;-1.290;2022-09-09T11:26:51;14;14;
28026;PMS5003;15344;52.342;-1.290;2022-09-09T11:31:44;15;10;
28026;PMS5003;15344;52.342;-1.290;2022-09-09T11:34:10;16;13;
28026;PMS5003;15344;52.342;-1.290;2022-09-09T11:36:35;12;12;
28026;PMS5003;15344;52.342;-1.290;2022-09-09T11:38:58;13;12;
28026;PMS5003;15344;52.342;-1.290;2022-09-09T11:41:22;11;11;
28026;PMS5003;15344;52.342;-1.290;2022-09-09T11:43:47;10;8;
28026;PMS5003;15344;52.342;-1.290;2022-09-09T11:46:13;5;5;
28026;PMS5003;15344;52.342;-1.290;2022-09-09T11:48:39;8;6;
28026;PMS5003;15344;52.342;-1.290;2022-09-09T11:51:05;10;8;
28026;PMS5003;15344;52.342;-1.290;2022-09-09T11:53:29;8;8;
28026;PMS5003;15344;52.342;-1.290;2022-09-09T11:58:21;6;5;
28026;PMS5003;15344;52.342;-1.290;2022-09-09T12:00:47;8;6;
28026;PMS5003;15344;52.342;-1.290;2022-09-09T12:05:39;10;8;
28026;PMS5003;15344;52.342;-1.290;2022-09-09T12:08:04;14;10;
28026;PMS5003;15344;52.342;-1.290;2022-09-09T12:10:29;9;7;
28026;PMS5003;15344;52.342;-1.290;2022-09-09T12:12:54;12;9;
28026;PMS5003;15344;52.342;-1.290;2022-09-09T12:15:22;15;14;
28026;PMS5003;15344;52.342;-1.290;2022-09-09T12:17:45;13;11;
28026;PMS5003;15344;52.342;-1.290;2022-09-09T12:20:12;10;10;
28026;PMS5003;15344;52.342;-1.290;2022-09-09T12:22:39;10;8;
28026;PMS5003;15344;52.342;-1.290;2022-09-09T12:25:06;9;9;
28026;PMS5003;15344;52.342;-1.290;2022-09-09T12:27:31;16;12;
28026;PMS5003;15344;52.342;-1.290;2022-09-09T12:29:55;12;9;
28026;PMS5003;15344;52.342;-1.290;2022-09-09T12:32:22;9;9;
28026;PMS5003;15344;52.342;-1.290;2022-09-09T12:34:47;11;9;
28026;PMS5003;15344;52.342;-1.290;2022-09-09T12:37:14;7;7;
28026;PMS5003;15344;52.342;-1.290;2022-09-09T12:39:37;11;8;
28026;PMS5003;15344;52.342;-1.290;2022-09-09T12:42:02;7;7;
28026;PMS5003;15344;52.342;-1.290;2022-09-09T12:44:27;9;9;
28026;PMS5003;15344;52.342;-1.290;2022-09-09T12:46:52;11;9;
28026;PMS5003;15344;52.342;-1.290;2022-09-09T12:49:23;8;8;
28026;PMS5003;15344;52.342;-1.290;2022-09-09T12:51:43;6;6;
28026;PMS5003;15344;52.342;-1.290;2022-09-09T12:54:12;8;7;
28026;PMS5003;15344;52.342;-1.290;2022-09-09T12:56:35;6;6;
28026;PMS5003;15344;52.342;-1.290;2022-09-09T12:59:01;8;6;
28026;PMS5003;15344;52.342;-1.290;2022-09-09T13:01:27;7;5;
28026;PMS5003;15344;52.342;-1.290;2022-09-09T13:03:52;9;7;
28026;PMS5003;15344;52.342;-1.290;2022-09-09T13:06:19;7;7;
28026;PMS5003;15344;52.342;-1.290;2022-09-09T13:08:44;7;5;
28026;PMS5003;15344;52.342;-1.290;2022-09-09T13:11:10;11;8;
28026;PMS5003;15344;52.342;-1.290;2022-09-09T13:13:36;6;6;
28026;PMS5003;15344;52.342;-1.290;2022-09-09T13:16:02;7;7;
28026;PMS5003;15344;52.342;-1.290;2022-09-09T13:18:28;4;4;
28026;PMS5003;15344;52.342;-1.290;2022-09-09T13:20:53;8;6;
28026;PMS5003;15344;52.342;-1.290;2022-09-09T13:23:19;5;4;
28026;PMS5003;15344;52.342;-1.290;2022-09-09T13:30:37;11;11;
28026;PMS5003;15344;52.342;-1.290;2022-09-09T13:33:04;9;6;
28026;PMS5003;15344;52.342;-1.290;2022-09-09T13:35:27;10;8;
28026;PMS5003;15344;52.342;-1.290;2022-09-09T13:37:54;11;9;
28026;PMS5003;15344;52.342;-1.290;2022-09-09T13:40:20;12;11;
28026;PMS5003;15344;52.342;-1.290;2022-09-09T13:42:44;8;8;
28026;PMS5003;15344;52.342;-1.290;2022-09-09T13:47:34;11;10;
28026;PMS5003;15344;52.342;-1.290;2022-09-09T13:52:24;8;8;
28026;PMS5003;15344;52.342;-1.290;2022-09-09T13:54:50;8;7;
28026;PMS5003;15344;52.342;-1.290;2022-09-09T13:57:16;10;8;
28026;PMS5003;15344;52.342;-1.290;2022-09-09T13:59:40;10;9;
28026;PMS5003;15344;52.342;-1.290;2022-09-09T14:02:06;11;11;
28026;PMS5003;15344;52.342;-1.290;2022-09-09T14:04:31;13;11;
28026;PMS5003;15344;52.342;-1.290;2022-09-09T14:06:56;21;19;
28026;PMS5003;15344;52.342;-1.290;2022-09-09T14:09:22;16;15;
28026;PMS5003;15344;52.342;-1.290;2022-09-09T14:11:48;22;16;
28026;PMS5003;15344;52.342;-1.290;2022-09-09T14:14:13;13;11;
28026;PMS5003;15344;52.342;-1.290;2022-09-09T14:16:39;11;10;
28026;PMS5003;15344;52.342;-1.290;2022-09-09T14:19:03;11;10;
28026;PMS5003;15344;52.342;-1.290;2022-09-09T14:21:28;11;10;
28026;PMS5003;15344;52.342;-1.290;2022-09-09T14:23:53;9;7;
28026;PMS5003;15344;52.342;-1.290;2022-09-09T14:26:19;9;9;
28026;PMS5003;15344;52.342;-1.290;2022-09-09T14:28:44;11;10;
28026;PMS5003;15344;52.342;-1.290;2022-09-09T14:31:10;17;14;
28026;PMS5003;15344;52.342;-1.290;2022-09-09T14:33:35;15;12;
28026;PMS5003;15344;52.342;-1.290;2022-09-09T14:36:01;15;12;
28026;PMS5003;15344;52.342;-1.290;2022-09-09T14:38:26;17;13;
28026;PMS5003;15344;52.342;-1.290;2022-09-09T14:40:51;18;16;
28026;PMS5003;15344;52.342;-1.290;2022-09-09T14:43:16;12;10;
28026;PMS5003;15344;52.342;-1.290;2022-09-09T14:45:41;9;9;
28026;PMS5003;15344;52.342;-1.290;2022-09-09T14:48:06;7;7;
28026;PMS5003;15344;52.342;-1.290;2022-09-09T14:50:31;9;7;
28026;PMS5003;15344;52.342;-1.290;2022-09-09T14:52:56;9;9;
28026;PMS5003;15344;52.342;-1.290;2022-09-09T14:55:21;10;7;
28026;PMS5003;15344;52.342;-1.290;2022-09-09T14:57:46;12;9;
28026;PMS5003;15344;52.342;-1.290;2022-09-09T15:00:12;12;9;
28026;PMS5003;15344;52.342;-1.290;2022-09-09T15:02:38;16;12;
28026;PMS5003;15344;52.342;-1.290;2022-09-09T15:05:03;9;9;
28026;PMS5003;15344;52.342;-1.290;2022-09-09T15:07:28;9;9;
28026;PMS5003;15344;52.342;-1.290;2022-09-09T15:09:53;10;9;
28026;PMS5003;15344;52.342;-1.290;2022-09-09T15:12:18;10;8;
28026;PMS5003;15344;52.342;-1.290;2022-09-09T15:14:43;13;9;
28026;PMS5003;15344;52.342;-1.290;2022-09-09T15:17:08;14;12;
28026;PMS5003;15344;52.342;-1.290;2022-09-09T15:19:34;12;12;
28026;PMS5003;15344;52.342;-1.290;2022-09-09T15:22:00;11;9;
28026;PMS5003;15344;52.342;-1.290;2022-09-09T15:24:25;13;12;
28026;PMS5003;15344;52.342;-1.290;2022-09-09T15:26:50;5;4;
28026;PMS5003;15344;52.342;-1.290;2022-09-09T15:29:15;5;5;
28026;PMS5003;15344;52.342;-1.290;2022-09-09T15:31:40;7;6;
28026;PMS5003;15344;52.342;-1.290;2022-09-09T15:34:06;7;5;
28026;PMS5003;15344;52.342;-1.290;2022-09-09T15:36:31;9;7;
28026;PMS5003;15344;52.342;-1.290;2022-09-09T15:38:56;11;6;
28026;PMS5003;15344;52.342;-1.290;2022-09-09T15:41:22;7;5;
28026;PMS5003;15344;52.342;-1.290;2022-09-09T15:43:47;11;8;
28026;PMS5003;15344;52.342;-1.290;2022-09-09T15:48:37;11;9;
28026;PMS5003;15344;52.342;-1.290;2022-09-09T15:51:03;15;12;
28026;PMS5003;15344;52.342;-1.290;2022-09-09T15:53:28;20;18;
28026;PMS5003;15344;52.342;-1.290;2022-09-09T15:55:54;17;15;
28026;PMS5003;15344;52.342;-1.290;2022-09-09T15:58:19;12;12;
28026;PMS5003;15344;52.342;-1.290;2022-09-09T16:00:44;17;11;
28026;PMS5003;15344;52.342;-1.290;2022-09-09T16:03:09;15;10;
28026;PMS5003;15344;52.342;-1.290;2022-09-09T16:05:35;9;9;
28026;PMS5003;15344;52.342;-1.290;2022-09-09T16:08:00;10;9;
28026;PMS5003;15344;52.342;-1.290;2022-09-09T16:10:25;15;12;
28026;PMS5003;15344;52.342;-1.290;2022-09-09T16:12:51;9;9;
28026;PMS5003;15344;52.342;-1.290;2022-09-09T16:15:15;18;13;
28026;PMS5003;15344;52.342;-1.290;2022-09-09T16:17:41;16;13;
28026;PMS5003;15344;52.342;-1.290;2022-09-09T16:20:06;12;11;
28026;PMS5003;15344;52.342;-1.290;2022-09-09T16:22:32;7;7;
28026;PMS5003;15344;52.342;-1.290;2022-09-09T16:24:57;10;10;
28026;PMS5003;15344;52.342;-1.290;2022-09-09T16:27:22;11;8;
28026;PMS5003;15344;52.342;-1.290;2022-09-09T16:29:47;8;6;
28026;PMS5003;15344;52.342;-1.290;2022-09-09T16:32:13;8;7;
28026;PMS5003;15344;52.342;-1.290;2022-09-09T16:34:38;7;7;
28026;PMS5003;15344;52.342;-1.290;2022-09-09T16:37:03;10;9;
28026;PMS5003;15344;52.342;-1.290;2022-09-09T16:39:28;11;10;
28026;PMS5003;15344;52.342;-1.290;2022-09-09T16:41:53;10;9;